createdAt,value
2023-08-08T00:00:38.161Z,19.55
2023-08-08T00:03:07.795Z,19.52
2023-08-08T00:05:36.878Z,19.51
2023-08-08T00:08:07.830Z,19.49
2023-08-08T00:10:36.820Z,19.48
2023-08-08T00:13:06.129Z,19.46
2023-08-08T00:15:35.244Z,19.49
2023-08-08T00:18:06.222Z,19.48
2023-08-08T00:20:35.155Z,19.41
2023-08-08T00:23:04.120Z,19.41
2023-08-08T00:25:33.021Z,19.43
2023-08-08T00:28:02.158Z,19.42
2023-08-08T00:30:31.098Z,19.41
2023-08-08T00:33:00.127Z,19.41
2023-08-08T00:35:30.481Z,19.39
2023-08-08T00:37:59.453Z,19.41
2023-08-08T00:40:28.568Z,19.39
2023-08-08T00:42:57.516Z,19.38
2023-08-08T00:45:26.632Z,19.36
2023-08-08T00:47:56.104Z,19.30
2023-08-08T00:50:25.764Z,19.29
2023-08-08T00:52:56.397Z,19.23
2023-08-08T00:55:25.714Z,19.21
2023-08-08T00:57:55.334Z,19.22
2023-08-08T01:00:25.600Z,19.20
2023-08-08T01:02:55.429Z,19.20
2023-08-08T01:05:25.032Z,19.16
2023-08-08T01:08:05.055Z,19.09
2023-08-08T01:10:38.281Z,19.04
2023-08-08T01:13:12.614Z,18.97
2023-08-08T01:15:42.554Z,18.96
2023-08-08T01:18:12.858Z,18.95
2023-08-08T01:20:42.619Z,18.95
2023-08-08T01:23:18.504Z,18.96
2023-08-08T01:25:50.370Z,18.97
2023-08-08T01:28:23.798Z,19.04
2023-08-08T01:30:53.198Z,19.12
2023-08-08T01:33:23.439Z,19.18
2023-08-08T01:35:58.452Z,19.23
2023-08-08T01:38:29.415Z,19.27
2023-08-08T01:41:01.751Z,19.40
2023-08-08T01:43:32.331Z,19.50
2023-08-08T01:46:04.059Z,19.57
2023-08-08T01:48:33.333Z,19.66
2023-08-08T01:51:02.427Z,19.78
2023-08-08T01:53:31.605Z,19.96
2023-08-08T01:56:01.982Z,20.05
2023-08-08T01:58:31.933Z,20.18
2023-08-08T02:01:02.030Z,20.28
2023-08-08T02:03:31.093Z,20.43
2023-08-08T02:06:00.277Z,20.63
2023-08-08T02:08:29.394Z,20.84
2023-08-08T02:10:58.522Z,21.02
2023-08-08T02:13:28.867Z,21.24
2023-08-08T02:15:57.976Z,21.35
2023-08-08T02:18:26.925Z,21.35
2023-08-08T02:20:56.398Z,21.50
2023-08-08T02:23:25.436Z,21.41
2023-08-08T02:25:54.457Z,20.90
2023-08-08T02:28:24.010Z,20.43
2023-08-08T02:30:55.387Z,20.31
2023-08-08T02:33:24.361Z,20.26
2023-08-08T02:35:57.511Z,20.23
2023-08-08T02:38:26.751Z,20.26
2023-08-08T02:40:55.700Z,20.32
2023-08-08T02:43:24.816Z,20.34
2023-08-08T02:45:55.338Z,20.42
2023-08-08T02:48:24.511Z,20.52
2023-08-08T02:50:53.550Z,20.49
2023-08-08T02:53:25.508Z,20.42
2023-08-08T02:55:54.541Z,20.31
2023-08-08T02:58:23.709Z,20.30
2023-08-08T03:00:55.412Z,20.16
2023-08-08T03:03:25.189Z,20.12
2023-08-08T03:05:54.648Z,20.08
2023-08-08T03:08:23.669Z,19.97
2023-08-08T03:10:52.925Z,20.16
2023-08-08T03:13:23.708Z,20.21
2023-08-08T03:15:55.150Z,20.17
2023-08-08T03:18:27.072Z,20.21
2023-08-08T03:20:56.836Z,20.25
2023-08-08T03:23:26.637Z,20.29
2023-08-08T03:25:56.089Z,20.44
2023-08-08T03:28:28.077Z,20.67
2023-08-08T03:31:00.391Z,21.01
2023-08-08T03:33:31.295Z,21.44
2023-08-08T03:36:01.620Z,21.99
2023-08-08T03:38:31.280Z,22.36
2023-08-08T03:41:00.242Z,22.87
2023-08-08T03:43:29.528Z,22.94
2023-08-08T03:46:00.578Z,22.87
2023-08-08T03:48:29.579Z,23.18
2023-08-08T03:50:59.465Z,23.20
2023-08-08T03:53:28.573Z,23.37
2023-08-08T03:56:00.790Z,23.39
2023-08-08T03:58:30.158Z,23.37
2023-08-08T04:01:00.672Z,23.06
2023-08-08T04:03:29.930Z,22.96
2023-08-08T04:05:59.190Z,22.93
2023-08-08T04:08:28.163Z,22.82
2023-08-08T04:10:57.161Z,22.72
2023-08-08T04:13:26.166Z,22.71
2023-08-08T04:15:55.210Z,22.70
2023-08-08T04:18:25.615Z,22.49
2023-08-08T04:20:54.720Z,22.53
2023-08-08T04:23:26.649Z,22.48
2023-08-08T04:25:55.915Z,22.31
2023-08-08T04:28:24.995Z,22.34
2023-08-08T04:30:54.066Z,22.40
2023-08-08T04:33:23.120Z,22.54
2023-08-08T04:35:53.433Z,22.60
2023-08-08T04:38:22.382Z,22.74
2023-08-08T04:40:51.314Z,22.90
2023-08-08T04:43:20.247Z,23.11
2023-08-08T04:45:49.229Z,23.18
2023-08-08T04:48:18.336Z,23.37
2023-08-08T04:50:48.869Z,23.40
2023-08-08T04:53:19.197Z,23.51
2023-08-08T04:55:48.751Z,23.51
2023-08-08T04:58:17.777Z,23.54
2023-08-08T05:00:47.725Z,23.37
2023-08-08T05:03:16.791Z,23.17
2023-08-08T05:05:46.822Z,22.95
2023-08-08T05:08:16.529Z,22.82
2023-08-08T05:10:48.153Z,22.17
2023-08-08T05:13:23.215Z,21.51
2023-08-08T05:15:52.351Z,20.98
2023-08-08T05:18:21.652Z,20.62
2023-08-08T05:20:51.013Z,20.21
2023-08-08T05:23:20.169Z,19.87
2023-08-08T05:25:50.720Z,19.63
2023-08-08T05:28:19.863Z,19.50
2023-08-08T05:30:49.349Z,19.44
2023-08-08T05:33:18.583Z,19.41
2023-08-08T05:35:47.650Z,19.49
2023-08-08T05:38:16.851Z,19.60
2023-08-08T05:40:46.142Z,19.69
2023-08-08T05:43:19.558Z,19.75
2023-08-08T05:45:50.150Z,19.89
2023-08-08T05:48:19.549Z,20.05
2023-08-08T05:50:48.884Z,20.27
2023-08-08T05:53:18.248Z,20.56
2023-08-08T05:55:47.528Z,20.85
2023-08-08T05:58:18.457Z,21.09
2023-08-08T06:00:47.692Z,21.36
2023-08-08T06:03:17.172Z,21.71
2023-08-08T06:05:46.179Z,22.07
2023-08-08T06:08:17.333Z,22.30
2023-08-08T06:10:46.478Z,22.66
2023-08-08T06:13:15.945Z,23.20
2023-08-08T06:15:46.548Z,23.89
2023-08-08T06:18:16.607Z,23.85
2023-08-08T06:20:45.919Z,23.89
2023-08-08T06:23:16.435Z,24.05
2023-08-08T06:25:45.623Z,24.29
2023-08-08T06:28:14.658Z,24.50
2023-08-08T06:30:43.809Z,24.59
2023-08-08T06:33:14.480Z,24.63
2023-08-08T06:35:44.698Z,24.79
2023-08-08T06:38:13.870Z,25.11
2023-08-08T06:40:43.547Z,25.38
2023-08-08T06:43:13.075Z,25.67
2023-08-08T06:45:42.394Z,25.70
2023-08-08T06:48:11.812Z,25.81
2023-08-08T06:50:42.742Z,25.87
2023-08-08T06:53:12.132Z,26.00
2023-08-08T06:55:41.570Z,26.06
2023-08-08T06:58:11.154Z,26.24
2023-08-08T07:00:41.183Z,26.25
2023-08-08T07:03:10.890Z,26.04
2023-08-08T07:05:42.038Z,26.13
2023-08-08T07:08:12.020Z,26.18
2023-08-08T07:10:42.983Z,26.27
2023-08-08T07:13:12.747Z,26.28
2023-08-08T07:15:42.518Z,26.29
2023-08-08T07:18:12.088Z,26.70
2023-08-08T07:20:43.061Z,26.86
2023-08-08T07:23:12.800Z,27.03
2023-08-08T07:25:42.382Z,27.49
2023-08-08T07:28:12.260Z,27.84
2023-08-08T07:30:42.070Z,27.97
2023-08-08T07:33:11.641Z,27.92
2023-08-08T07:35:43.316Z,27.77
2023-08-08T07:38:13.028Z,27.83
2023-08-08T07:40:42.856Z,28.02
2023-08-08T07:43:12.487Z,28.10
2023-08-08T07:45:42.470Z,28.46
2023-08-08T07:48:12.111Z,28.74
2023-08-08T07:50:43.506Z,28.60
2023-08-08T07:53:13.727Z,28.60
2023-08-08T07:55:43.665Z,28.21
2023-08-08T07:58:13.753Z,28.06
2023-08-08T08:00:55.684Z,28.16
2023-08-08T08:03:31.178Z,27.97
2023-08-08T08:06:03.574Z,27.76
2023-08-08T08:08:34.040Z,27.73
2023-08-08T08:11:04.991Z,27.73
2023-08-08T08:13:34.528Z,28.09
2023-08-08T08:16:04.510Z,27.86
2023-08-08T08:18:35.083Z,27.03
2023-08-08T08:21:06.565Z,26.69
2023-08-08T08:23:38.721Z,26.77
2023-08-08T08:26:08.822Z,27.24
2023-08-08T08:28:38.544Z,27.56
2023-08-08T08:31:11.803Z,27.65
2023-08-08T08:33:41.709Z,27.48
2023-08-08T08:36:17.037Z,27.51
2023-08-08T08:38:48.680Z,27.61
2023-08-08T08:41:23.341Z,27.59
2023-08-08T08:43:53.377Z,27.39
2023-08-08T08:46:26.432Z,27.52
2023-08-08T08:48:58.693Z,27.41
2023-08-08T08:51:32.951Z,27.53
2023-08-08T08:54:02.625Z,27.47
2023-08-08T08:56:34.250Z,27.22
2023-08-08T08:59:04.827Z,27.34
2023-08-08T09:01:35.534Z,27.07
2023-08-08T09:04:11.229Z,26.74
2023-08-08T09:06:43.740Z,26.49
2023-08-08T09:09:16.856Z,26.52
2023-08-08T09:11:51.318Z,26.26
2023-08-08T09:14:25.490Z,24.93
2023-08-08T09:16:58.086Z,23.29
2023-08-08T09:19:30.797Z,22.96
2023-08-08T09:22:04.535Z,23.20
2023-08-08T09:24:35.402Z,23.56
2023-08-08T09:27:07.391Z,23.98
2023-08-08T09:29:41.570Z,24.38
2023-08-08T09:32:16.447Z,24.61
2023-08-08T09:34:49.643Z,23.93
2023-08-08T09:37:21.679Z,23.32
2023-08-08T09:39:59.954Z,23.05
2023-08-08T09:42:30.818Z,23.22
2023-08-08T09:45:06.309Z,23.93
2023-08-08T09:47:37.569Z,24.76
2023-08-08T09:50:09.523Z,25.35
2023-08-08T09:52:41.530Z,25.95
2023-08-08T09:55:13.637Z,25.86
2023-08-08T09:57:45.583Z,26.03
2023-08-08T10:00:18.402Z,26.19
2023-08-08T10:02:48.632Z,25.78
2023-08-08T10:05:19.973Z,25.74
2023-08-08T10:07:52.533Z,25.93
2023-08-08T10:10:28.844Z,26.22
2023-08-08T10:12:58.315Z,26.85
2023-08-08T10:15:29.788Z,27.37
2023-08-08T10:18:00.191Z,27.32
2023-08-08T10:20:29.808Z,27.25
2023-08-08T10:23:00.957Z,27.52
2023-08-08T10:25:32.921Z,27.71
2023-08-08T10:28:23.924Z,27.78
2023-08-08T10:30:56.589Z,27.91
2023-08-08T10:33:27.018Z,28.09
2023-08-08T10:36:04.669Z,28.02
2023-08-08T10:38:45.947Z,27.90
2023-08-08T10:41:17.028Z,28.19
2023-08-08T10:43:53.784Z,27.94
2023-08-08T10:46:27.448Z,27.83
2023-08-08T10:49:00.122Z,28.23
2023-08-08T10:51:37.732Z,28.95
2023-08-08T10:54:14.328Z,29.54
2023-08-08T10:56:49.774Z,29.45
2023-08-08T10:59:22.075Z,29.18
2023-08-08T11:01:54.724Z,28.64
2023-08-08T11:04:26.998Z,28.12
2023-08-08T11:06:56.690Z,27.98
2023-08-08T11:09:27.570Z,27.73
2023-08-08T11:11:56.824Z,27.87
2023-08-08T11:14:26.075Z,27.89
2023-08-08T11:16:55.339Z,27.78
2023-08-08T11:19:25.579Z,27.65
2023-08-08T11:21:54.913Z,27.75
2023-08-08T11:24:24.041Z,28.27
2023-08-08T11:27:01.481Z,28.41
2023-08-08T11:29:31.820Z,28.04
2023-08-08T11:32:03.388Z,27.82
2023-08-08T11:34:34.379Z,27.66
2023-08-08T11:37:03.906Z,27.35
2023-08-08T11:39:33.164Z,27.54
2023-08-08T11:42:04.375Z,27.75
2023-08-08T11:44:33.749Z,27.72
2023-08-08T11:47:04.372Z,27.63
2023-08-08T11:49:42.336Z,27.34
2023-08-08T11:52:11.787Z,27.35
2023-08-08T11:54:40.889Z,27.11
2023-08-08T11:57:11.650Z,27.22
2023-08-08T11:59:40.859Z,27.12
2023-08-08T12:02:11.670Z,27.08
2023-08-08T12:04:40.725Z,27.13
2023-08-08T12:07:09.727Z,26.92
2023-08-08T12:09:39.789Z,26.96
2023-08-08T12:12:11.239Z,27.22
2023-08-08T12:14:51.162Z,27.41
2023-08-08T12:17:26.299Z,27.41
2023-08-08T12:19:55.422Z,27.65
2023-08-08T12:22:24.698Z,27.67
2023-08-08T12:24:54.213Z,27.51
2023-08-08T12:27:24.727Z,27.68
2023-08-08T12:29:54.374Z,28.27
2023-08-08T12:32:24.867Z,28.71
2023-08-08T12:34:54.055Z,28.91
2023-08-08T12:37:24.410Z,28.95
2023-08-08T12:39:53.864Z,28.84
2023-08-08T12:42:24.308Z,28.88
2023-08-08T12:44:53.556Z,28.76
2023-08-08T12:47:22.891Z,28.85
2023-08-08T12:49:51.988Z,28.89
2023-08-08T12:52:21.153Z,28.73
2023-08-08T12:54:50.205Z,28.61
2023-08-08T12:57:19.254Z,28.49
2023-08-08T12:59:49.680Z,28.76
2023-08-08T13:02:18.893Z,29.01
2023-08-08T13:04:47.939Z,29.02
2023-08-08T13:07:17.085Z,28.89
2023-08-08T13:09:46.096Z,28.73
2023-08-08T13:12:15.218Z,28.64
2023-08-08T13:14:44.286Z,28.60
2023-08-08T13:17:14.769Z,28.76
2023-08-08T13:19:44.059Z,28.81
2023-08-08T13:22:13.751Z,28.79
2023-08-08T13:24:42.988Z,28.90
2023-08-08T13:27:12.385Z,28.76
2023-08-08T13:29:41.887Z,28.69
2023-08-08T13:32:11.046Z,28.72
2023-08-08T13:34:41.456Z,28.57
2023-08-08T13:37:10.431Z,28.36
2023-08-08T13:39:39.505Z,28.32
2023-08-08T13:45:00.229Z,28.41
2023-08-08T13:47:29.238Z,28.62
2023-08-08T13:49:59.642Z,28.70
2023-08-08T13:52:29.893Z,28.57
2023-08-08T13:54:58.915Z,28.34
2023-08-08T13:57:28.193Z,28.23
2023-08-08T13:59:57.182Z,28.29
2023-08-08T14:02:26.420Z,28.30
2023-08-08T14:04:55.501Z,28.14
2023-08-08T14:07:26.037Z,27.94
2023-08-08T14:09:55.180Z,27.78
2023-08-08T14:12:24.358Z,27.48
2023-08-08T14:14:53.564Z,27.41
2023-08-08T14:17:22.636Z,27.46
2023-08-08T14:19:51.634Z,27.52
2023-08-08T14:22:20.687Z,27.56
2023-08-08T14:24:51.202Z,27.50
2023-08-08T14:27:20.312Z,27.51
2023-08-08T14:29:49.246Z,27.37
2023-08-08T14:32:18.398Z,27.32
2023-08-08T14:34:47.524Z,27.31
2023-08-08T14:37:16.859Z,27.29
2023-08-08T14:39:45.878Z,27.16
2023-08-08T14:42:16.740Z,27.11
2023-08-08T14:44:45.764Z,27.11
2023-08-08T14:47:14.866Z,27.10
2023-08-08T14:49:43.892Z,26.98
2023-08-08T14:52:13.760Z,26.81
2023-08-08T14:54:42.822Z,26.78
2023-08-08T14:57:12.058Z,26.77
2023-08-08T14:59:42.585Z,26.73
2023-08-08T15:02:11.673Z,26.74
2023-08-08T15:04:40.731Z,26.66
2023-08-08T15:07:09.811Z,26.58
2023-08-08T15:09:39.809Z,26.66
2023-08-08T15:12:09.369Z,26.78
2023-08-08T15:14:38.401Z,26.73
2023-08-08T15:17:08.832Z,26.64
2023-08-08T15:19:39.372Z,26.57
2023-08-08T15:22:08.830Z,26.51
2023-08-08T15:24:37.907Z,26.46
2023-08-08T15:27:07.725Z,26.54
2023-08-08T15:29:38.958Z,26.63
2023-08-08T15:32:09.708Z,26.65
2023-08-08T15:34:38.772Z,26.67
2023-08-08T15:37:07.865Z,26.65
2023-08-08T15:39:37.010Z,26.54
2023-08-08T15:42:06.095Z,26.42
2023-08-08T15:44:35.334Z,26.30
2023-08-08T15:47:04.592Z,26.21
2023-08-08T15:49:35.492Z,26.06
2023-08-08T15:52:04.698Z,25.98
2023-08-08T15:54:33.730Z,25.86
2023-08-08T15:57:03.685Z,25.68
2023-08-08T15:59:33.248Z,25.53
2023-08-08T16:02:02.301Z,25.42
2023-08-08T16:04:32.454Z,25.37
2023-08-08T16:07:03.232Z,25.35
2023-08-08T16:09:32.653Z,25.31
2023-08-08T16:12:01.697Z,25.32
2023-08-08T16:14:30.758Z,25.24
2023-08-08T16:17:01.127Z,25.12
2023-08-08T16:19:30.495Z,24.94
2023-08-08T16:21:59.620Z,24.76
2023-08-08T16:24:30.010Z,24.54
2023-08-08T16:26:59.077Z,24.44
2023-08-08T16:29:28.296Z,24.35
2023-08-08T16:31:57.339Z,24.22
2023-08-08T16:34:26.368Z,24.10
2023-08-08T16:36:55.441Z,23.97
2023-08-08T16:39:24.626Z,23.89
2023-08-08T16:41:59.775Z,23.79
2023-08-08T16:44:29.074Z,23.68
2023-08-08T16:46:58.187Z,23.52
2023-08-08T16:49:27.933Z,23.45
2023-08-08T16:52:00.745Z,23.48
2023-08-08T16:54:30.336Z,23.58
2023-08-08T16:57:00.902Z,23.67
2023-08-08T16:59:30.554Z,23.67
2023-08-08T17:02:07.036Z,23.63
2023-08-08T17:04:36.072Z,23.57
2023-08-08T17:07:05.169Z,23.52
2023-08-08T17:09:34.743Z,23.43
2023-08-08T17:12:05.912Z,23.31
2023-08-08T17:14:35.623Z,23.19
2023-08-08T17:17:05.148Z,23.04
2023-08-08T17:19:34.304Z,22.94
2023-08-08T17:22:03.892Z,22.92
2023-08-08T17:24:36.597Z,22.92
2023-08-08T17:27:09.572Z,22.90
2023-08-08T17:29:38.648Z,22.87
2023-08-08T17:32:06.912Z,22.87
2023-08-08T17:34:36.173Z,22.90
2023-08-08T17:37:05.410Z,22.94
2023-08-08T17:39:34.574Z,22.90
2023-08-08T17:42:04.478Z,22.86
2023-08-08T17:44:51.772Z,22.78
2023-08-08T17:47:41.431Z,22.73
2023-08-08T17:50:11.002Z,22.74
2023-08-08T17:52:40.075Z,22.78
2023-08-08T17:55:10.837Z,22.71
2023-08-08T17:57:39.855Z,22.73
2023-08-08T18:00:11.743Z,22.51
2023-08-08T18:02:41.235Z,22.48
2023-08-08T18:05:10.741Z,22.42
2023-08-08T18:07:38.805Z,22.42
2023-08-08T18:10:09.358Z,22.33
2023-08-08T18:12:38.479Z,22.31
2023-08-08T18:15:08.642Z,22.23
2023-08-08T18:17:39.345Z,22.19
2023-08-08T18:20:10.796Z,22.21
2023-08-08T18:22:39.933Z,22.16
2023-08-08T18:25:10.251Z,22.09
2023-08-08T18:27:39.437Z,22.02
2023-08-08T18:30:09.735Z,21.96
2023-08-08T18:32:40.384Z,21.86
2023-08-08T18:35:10.135Z,21.89
2023-08-08T18:37:40.439Z,21.81
2023-08-08T18:40:12.770Z,21.75
2023-08-08T18:42:42.317Z,21.73
2023-08-08T18:45:12.625Z,21.68
2023-08-08T18:47:43.376Z,21.72
2023-08-08T18:50:13.094Z,21.64
2023-08-08T18:52:42.190Z,21.61
2023-08-08T18:55:11.264Z,21.60
2023-08-08T18:57:40.373Z,21.55
2023-08-08T19:00:10.282Z,21.47
2023-08-08T19:02:39.361Z,21.48
2023-08-08T19:05:10.594Z,21.48
2023-08-08T19:07:39.762Z,21.44
2023-08-08T19:10:09.730Z,21.38
2023-08-08T19:12:39.055Z,21.33
2023-08-08T19:15:09.496Z,21.36
2023-08-08T19:17:53.666Z,21.28
2023-08-08T19:20:26.494Z,21.28
2023-08-08T19:22:57.310Z,21.23
2023-08-08T19:25:26.471Z,21.25
2023-08-08T19:27:55.613Z,21.19
2023-08-08T19:30:25.241Z,21.18
2023-08-08T19:32:54.386Z,21.21
2023-08-08T19:35:23.494Z,21.15
2023-08-08T19:37:53.875Z,21.11
2023-08-08T19:40:22.977Z,21.12
2023-08-08T19:42:54.865Z,21.12
2023-08-08T19:45:24.131Z,21.12
2023-08-08T19:47:53.297Z,21.08
2023-08-08T19:50:22.456Z,21.04
2023-08-08T19:52:51.647Z,21.00
2023-08-08T19:55:22.231Z,20.99
2023-08-08T19:57:51.300Z,20.94
2023-08-08T20:00:21.410Z,20.86
2023-08-08T20:02:53.627Z,20.73
2023-08-08T20:05:23.055Z,20.71
2023-08-08T20:07:53.452Z,20.72
2023-08-08T20:10:26.461Z,20.74
2023-08-08T20:12:55.840Z,20.58
2023-08-08T20:15:24.852Z,20.11
2023-08-08T20:17:54.392Z,19.57
2023-08-08T20:20:24.034Z,19.13
2023-08-08T20:22:53.073Z,18.92
2023-08-08T20:25:22.136Z,18.82
2023-08-08T20:27:51.576Z,19.01
2023-08-08T20:30:20.630Z,19.12
2023-08-08T20:32:49.771Z,19.16
2023-08-08T20:35:18.930Z,19.23
2023-08-08T20:37:47.973Z,19.29
2023-08-08T20:40:17.092Z,19.26
2023-08-08T20:42:46.139Z,19.24
2023-08-08T20:45:16.588Z,19.24
2023-08-08T20:47:45.595Z,19.26
2023-08-08T20:50:14.631Z,19.29
2023-08-08T20:52:44.828Z,19.31
2023-08-08T20:55:14.100Z,19.33
2023-08-08T20:57:43.075Z,19.33
2023-08-08T21:00:13.057Z,19.36
2023-08-08T21:02:43.755Z,19.39
2023-08-08T21:05:12.793Z,19.40
2023-08-08T21:07:41.831Z,19.40
2023-08-08T21:10:11.764Z,19.32
2023-08-08T21:12:40.814Z,19.18
2023-08-08T21:15:10.522Z,19.15
2023-08-08T21:17:44.038Z,19.18
2023-08-08T21:20:14.881Z,19.19
2023-08-08T21:22:44.077Z,19.23
2023-08-08T21:25:13.680Z,19.26
2023-08-08T21:27:42.628Z,19.23
2023-08-08T21:30:12.640Z,19.25
2023-08-08T21:32:41.682Z,19.30
2023-08-08T21:35:10.964Z,19.33
2023-08-08T21:37:41.488Z,19.33
2023-08-08T21:40:11.364Z,19.31
2023-08-08T21:42:40.619Z,19.30
2023-08-08T21:45:10.559Z,19.31
2023-08-08T21:47:40.447Z,19.30
2023-08-08T21:50:10.272Z,19.30
2023-08-08T21:52:40.610Z,19.34
2023-08-08T21:55:10.267Z,19.35
2023-08-08T21:57:40.168Z,19.36
2023-08-08T22:00:14.431Z,19.27
2023-08-08T22:02:45.092Z,18.93
2023-08-08T22:05:14.157Z,18.57
2023-08-08T22:07:44.490Z,18.32
2023-08-08T22:10:13.837Z,17.99
2023-08-08T22:12:42.820Z,17.79
2023-08-08T22:15:12.853Z,17.68
2023-08-08T22:17:50.304Z,17.63
2023-08-08T22:20:26.287Z,17.58
2023-08-08T22:23:02.917Z,17.54
2023-08-08T22:25:38.325Z,17.49
2023-08-08T22:28:07.953Z,17.46
2023-08-08T22:30:37.190Z,17.47
2023-08-08T22:33:06.506Z,17.47
2023-08-08T22:35:35.556Z,17.48
2023-08-08T22:38:07.216Z,17.51
2023-08-08T22:40:36.135Z,17.58
2023-08-08T22:43:05.409Z,17.64
2023-08-08T22:45:34.313Z,17.66
2023-08-08T22:48:04.013Z,17.68
2023-08-08T22:50:33.195Z,17.70
2023-08-08T22:53:02.361Z,17.73
2023-08-08T22:55:34.013Z,17.70
2023-08-08T22:58:02.932Z,17.63
2023-08-08T23:00:32.328Z,17.62
2023-08-08T23:03:01.397Z,17.55
2023-08-08T23:05:30.392Z,17.52
2023-08-08T23:07:59.380Z,17.41
2023-08-08T23:10:28.321Z,17.37
2023-08-08T23:12:58.663Z,17.35
2023-08-08T23:15:27.921Z,17.32
2023-08-08T23:17:56.845Z,17.38
2023-08-08T23:20:25.993Z,17.36
2023-08-08T23:22:54.852Z,17.38
2023-08-08T23:25:26.260Z,17.38
2023-08-08T23:27:55.330Z,17.39
2023-08-08T23:30:26.055Z,17.35
2023-08-08T23:32:55.287Z,17.32
2023-08-08T23:35:24.793Z,17.35
2023-08-08T23:37:53.842Z,17.35
2023-08-08T23:40:23.781Z,17.39
2023-08-08T23:42:52.743Z,17.42
2023-08-08T23:45:21.769Z,17.48
2023-08-08T23:47:52.305Z,17.51
2023-08-08T23:50:21.513Z,17.50
2023-08-08T23:52:50.570Z,17.50
2023-08-08T23:55:19.552Z,17.53
2023-08-08T23:57:48.767Z,17.50
